createdAt,value
2023-05-05T00:06:15.610Z,10
2023-05-05T00:21:49.502Z,9.9
2023-05-05T00:37:23.527Z,9.7
2023-05-05T00:52:57.521Z,9.5
2023-05-05T01:08:31.568Z,9.3
2023-05-05T01:24:05.583Z,9
2023-05-05T01:39:39.572Z,8.8
2023-05-05T01:55:13.560Z,8.6
2023-05-05T02:10:47.543Z,8.6
2023-05-05T02:26:21.523Z,8.4
2023-05-05T02:41:55.513Z,8.3
2023-05-05T02:57:29.502Z,8.3
2023-05-05T03:13:03.718Z,8
2023-05-05T03:28:37.551Z,8
2023-05-05T03:44:11.556Z,7.9
2023-05-05T03:59:45.551Z,7.8
2023-05-05T04:15:19.582Z,7.8
2023-05-05T04:30:53.777Z,7.8
2023-05-05T04:46:28.061Z,7.8
2023-05-05T05:02:05.654Z,8.3
2023-05-05T05:17:39.750Z,9.5
2023-05-05T05:33:14.058Z,10.5
2023-05-05T05:48:48.073Z,11
2023-05-05T06:04:22.532Z,11.6
2023-05-05T06:19:56.576Z,12.3
2023-05-05T06:35:30.678Z,13.3
2023-05-05T06:51:05.478Z,14.6
2023-05-05T07:06:40.201Z,15.8
2023-05-05T07:22:14.712Z,16.7
2023-05-05T07:37:49.332Z,17.6
2023-05-05T07:53:38.318Z,18.3
2023-05-05T08:09:13.076Z,19
2023-05-05T08:24:47.672Z,19.7
2023-05-05T08:40:22.686Z,20.6
2023-05-05T08:55:57.396Z,21.3
2023-05-05T09:11:32.094Z,22.1
2023-05-05T09:27:06.712Z,22.2
2023-05-05T09:42:41.585Z,22.9
2023-05-05T09:58:16.437Z,23.9
2023-05-05T10:13:51.198Z,23.7
2023-05-05T10:29:25.926Z,24.7
2023-05-05T10:45:00.799Z,25.5
2023-05-05T11:00:35.965Z,25.6
2023-05-05T11:16:10.716Z,25.8
2023-05-05T11:31:45.320Z,26.9
2023-05-05T11:47:20.244Z,26.9
2023-05-05T12:02:55.424Z,27.7
2023-05-05T12:18:30.788Z,27.2
2023-05-05T12:34:05.699Z,27.3
2023-05-05T12:49:40.288Z,27.2
2023-05-05T13:05:14.853Z,27.5
2023-05-05T13:20:49.554Z,27
2023-05-05T13:36:24.274Z,26
2023-05-05T13:51:59.052Z,25.8
2023-05-05T14:07:33.688Z,25.2
2023-05-05T14:23:08.216Z,25
2023-05-05T14:38:42.880Z,24.4
2023-05-05T14:54:30.357Z,24.6
2023-05-05T15:10:05.676Z,25.5
2023-05-05T15:25:40.475Z,25.2
2023-05-05T15:41:17.787Z,25.2
2023-05-05T15:56:52.420Z,25.5
2023-05-05T16:12:27.414Z,24.8
2023-05-05T16:28:02.096Z,24
2023-05-05T16:43:36.990Z,22.6
2023-05-05T16:59:11.610Z,22.3
2023-05-05T17:14:46.203Z,22.1
2023-05-05T17:30:20.597Z,21.7
2023-05-05T17:45:55.619Z,21.4
2023-05-05T18:01:30.455Z,20.8
2023-05-05T18:17:04.914Z,20.4
2023-05-05T18:32:39.961Z,19.3
2023-05-05T18:48:14.427Z,18.1
2023-05-05T19:03:49.467Z,17.4
2023-05-05T19:19:24.265Z,16.4
2023-05-05T19:34:58.874Z,16
2023-05-05T19:50:33.507Z,15.8
2023-05-05T20:06:07.754Z,15.4
2023-05-05T20:21:42.432Z,15
2023-05-05T20:37:17.287Z,14.8
2023-05-05T20:52:51.804Z,14.7
2023-05-05T21:08:27.966Z,14.9
2023-05-05T21:24:02.289Z,15
2023-05-05T21:39:36.584Z,14.9
2023-05-05T21:55:10.810Z,14.7
2023-05-05T22:10:45.350Z,14.6
2023-05-05T22:26:19.724Z,14.5
2023-05-05T22:41:54.115Z,14.4
2023-05-05T22:57:28.388Z,14.3
2023-05-05T23:13:03.114Z,14.2
2023-05-05T23:28:37.551Z,14.2
2023-05-05T23:44:12.052Z,14.1
2023-05-05T23:59:47.235Z,14.2
